Time;durP1;ratioP1;P1;durP2;ratioP2;P2;SDS_P1;SDS_P2;PMS_P1;PMS_P2;Temp;Humidity;BMP_temperature;BMP_pressure;BME280_temperature;BME280_humidity;BME280_pressure;Samples;Min_cycle;Max_cycle;Signal;HPM_P1;HPM_P2
2023/03/28 00:00:30;;;;;;;7.77;1.57;;;;;;;-2.41;100.00;102573.84;4925453;29;20056;-87
2023/03/28 00:02:55;;;;;;;8.63;2.30;;;;;;;-2.41;100.00;102581.72;4925972;29;20028;-87
2023/03/28 00:05:22;;;;;;;7.07;1.93;;;;;;;-2.49;100.00;102587.63;4919055;29;20036;-87
2023/03/28 00:07:49;;;;;;;4.28;1.55;;;;;;;-2.54;100.00;102576.66;4926425;29;20038;-88
2023/03/28 00:10:15;;;;;;;6.40;1.23;;;;;;;-2.59;100.00;102564.78;4921016;29;20032;-88
2023/03/28 00:12:41;;;;;;;9.93;1.73;;;;;;;-2.44;100.00;102580.22;4916214;29;20795;-88
2023/03/28 00:15:06;;;;;;;8.77;1.70;;;;;;;-2.38;100.00;102584.97;4918168;29;20032;-87
2023/03/28 00:17:32;;;;;;;7.37;1.80;;;;;;;-2.33;100.00;102580.13;4915775;29;20476;-87
2023/03/28 00:19:57;;;;;;;6.95;1.67;;;;;;;-2.31;100.00;102585.28;4916851;29;20382;-88
2023/03/28 00:22:23;;;;;;;9.90;2.17;;;;;;;-2.26;100.00;102584.88;4917885;29;20024;-88
2023/03/28 00:24:50;;;;;;;4.67;1.80;;;;;;;-2.30;100.00;102582.50;4917953;29;20273;-88
2023/03/28 00:27:16;;;;;;;8.63;1.65;;;;;;;-2.39;100.00;102562.28;4917382;29;20396;-88
2023/03/28 00:29:44;;;;;;;6.35;1.45;;;;;;;-2.36;100.00;102576.94;4916163;29;20050;-87
2023/03/28 00:32:09;;;;;;;7.82;1.85;;;;;;;-2.43;100.00;102566.13;4898681;29;20039;-88
2023/03/28 00:34:35;;;;;;;7.00;1.63;;;;;;;-2.41;100.00;102576.47;4899772;29;20025;-88
2023/03/28 00:37:04;;;;;;;6.30;1.70;;;;;;;-2.45;100.00;102573.28;4909723;29;20477;-88
2023/03/28 00:39:30;;;;;;;6.53;1.63;;;;;;;-2.52;100.00;102572.13;4909634;29;20025;-87
2023/03/28 00:42:00;;;;;;;9.07;1.80;;;;;;;-2.56;100.00;102562.88;4929826;29;20038;-87
2023/03/28 00:44:48;;;;;;;7.22;1.90;;;;;;;-2.57;100.00;102574.31;4929467;29;20060;-87
2023/03/28 00:47:39;;;;;;;6.07;2.08;;;;;;;-2.68;100.00;102576.03;4932003;29;20052;-87
2023/03/28 00:50:08;;;;;;;7.50;2.00;;;;;;;-2.73;100.00;102575.56;4934983;29;20032;-88
2023/03/28 00:52:38;;;;;;;7.23;2.10;;;;;;;-2.79;100.00;102576.91;4937092;29;20311;-87
2023/03/28 00:55:08;;;;;;;11.52;2.05;;;;;;;-2.80;100.00;102580.50;4934854;29;20028;-87
2023/03/28 00:57:37;;;;;;;5.05;1.60;;;;;;;-2.91;100.00;102570.88;4936338;29;20056;-88
2023/03/28 01:00:11;;;;;;;6.72;1.95;;;;;;;-2.90;100.00;102574.34;4936271;29;20020;-87
2023/03/28 01:02:38;;;;;;;4.88;1.55;;;;;;;-2.85;100.00;102577.44;4935898;29;20087;-89
2023/03/28 01:05:04;;;;;;;16.77;2.20;;;;;;;-2.77;100.00;102584.69;4934565;29;20092;-88
2023/03/28 01:07:39;;;;;;;4.53;1.50;;;;;;;-2.78;100.00;102573.31;4927809;29;20096;-88
2023/03/28 01:10:06;;;;;;;7.82;1.98;;;;;;;-2.85;100.00;102569.56;4926212;29;20036;-88
2023/03/28 01:12:33;;;;;;;5.28;1.85;;;;;;;-2.87;100.00;102575.88;4930697;29;20028;-88
2023/03/28 01:15:01;;;;;;;8.13;2.05;;;;;;;-2.94;100.00;102580.78;4927067;29;20024;-87
2023/03/28 01:17:26;;;;;;;8.02;1.85;;;;;;;-2.92;100.00;102582.31;4931207;29;20048;-88
2023/03/28 01:20:12;;;;;;;6.20;1.60;;;;;;;-2.85;100.00;102579.19;4928453;29;20178;-88
2023/03/28 01:23:01;;;;;;;7.57;1.98;;;;;;;-2.77;100.00;102579.44;4920391;29;20032;-88
2023/03/28 01:26:13;;;;;;;9.07;1.85;;;;;;;-2.69;100.00;102576.16;4919143;29;20461;-87
2023/03/28 01:29:27;;;;;;;11.97;1.97;;;;;;;-2.59;100.00;102569.19;4920051;29;20051;-88
2023/03/28 01:32:27;;;;;;;9.70;2.10;;;;;;;-2.55;100.00;102573.22;4919677;29;20265;-87
2023/03/28 01:35:18;;;;;;;6.47;2.10;;;;;;;-2.55;100.00;102569.75;4921103;29;20092;-87
2023/03/28 01:38:01;;;;;;;9.77;1.90;;;;;;;-2.61;100.00;102563.22;4927977;29;20472;-88
2023/03/28 01:40:46;;;;;;;6.38;2.40;;;;;;;-2.61;100.00;102563.22;4915858;29;20028;-87
2023/03/28 01:43:18;;;;;;;8.65;2.00;;;;;;;-2.62;100.00;102562.41;4916703;29;20036;-87
2023/03/28 01:46:05;;;;;;;9.35;2.38;;;;;;;-2.60;100.00;102557.88;4915780;29;20048;-88
2023/03/28 01:48:53;;;;;;;6.83;2.03;;;;;;;-2.60;100.00;102555.25;4897060;29;20404;-88
2023/03/28 01:51:43;;;;;;;9.07;2.63;;;;;;;-2.55;100.00;102556.63;4903102;29;20796;-87
2023/03/28 01:54:17;;;;;;;5.85;2.00;;;;;;;-2.61;100.00;102558.81;4915861;29;20043;-88
2023/03/28 01:57:12;;;;;;;7.82;2.28;;;;;;;-2.70;100.00;102550.88;4913397;29;20036;-87
2023/03/28 01:59:45;;;;;;;6.32;2.00;;;;;;;-2.79;100.00;102552.47;4914581;29;20036;-87
2023/03/28 02:02:27;;;;;;;9.02;2.20;;;;;;;-2.84;100.00;102552.00;4916636;29;20032;-88
2023/03/28 02:04:57;;;;;;;8.02;2.17;;;;;;;-2.84;100.00;102552.84;4914711;29;20048;-87
2023/03/28 02:07:24;;;;;;;6.10;1.90;;;;;;;-2.84;100.00;102562.50;4914588;29;20054;-87
2023/03/28 02:09:53;;;;;;;9.97;2.00;;;;;;;-2.91;100.00;102547.25;4916183;29;20756;-88
2023/03/28 02:12:28;;;;;;;6.05;1.83;;;;;;;-2.86;100.00;102553.91;4914761;29;20040;-87
2023/03/28 02:14:56;;;;;;;5.57;1.95;;;;;;;-2.85;100.00;102555.59;4914905;29;20031;-87
2023/03/28 02:17:25;;;;;;;13.23;2.67;;;;;;;-2.87;100.00;102554.88;4915269;29;20036;-87
2023/03/28 02:19:59;;;;;;;10.45;2.35;;;;;;;-2.99;100.00;102547.06;4916302;29;20056;-88
2023/03/28 02:22:31;;;;;;;8.98;2.08;;;;;;;-3.01;100.00;102551.59;4915085;29;20530;-87
2023/03/28 02:24:57;;;;;;;15.80;2.07;;;;;;;-3.07;100.00;102544.22;4898368;29;20365;-87
2023/03/28 02:27:22;;;;;;;6.67;2.20;;;;;;;-3.06;100.00;102548.50;4915096;29;20280;-87
2023/03/28 02:29:49;;;;;;;10.90;1.97;;;;;;;-3.15;100.00;102541.41;4914947;29;20036;-87
2023/03/28 02:32:16;;;;;;;13.07;2.47;;;;;;;-3.09;100.00;102544.34;4897981;29;20068;-87
2023/03/28 02:34:43;;;;;;;5.50;2.17;;;;;;;-3.03;100.00;102550.88;4913815;29;20087;-87
2023/03/28 02:37:25;;;;;;;7.93;2.28;;;;;;;-3.00;100.00;102549.78;4914801;29;20111;-87
2023/03/28 02:40:12;;;;;;;8.93;2.15;;;;;;;-3.02;100.00;102549.94;4914771;29;20385;-87
2023/03/28 02:42:47;;;;;;;7.03;2.10;;;;;;;-2.99;100.00;102549.69;4912997;29;20448;-87
2023/03/28 02:45:34;;;;;;;7.53;2.50;;;;;;;-2.98;100.00;102547.88;4914862;29;20042;-87
2023/03/28 02:48:32;;;;;;;9.00;2.40;;;;;;;-2.99;100.00;102549.69;4914424;29;20311;-87
2023/03/28 02:51:22;;;;;;;9.98;2.30;;;;;;;-3.12;100.00;102546.41;4914830;29;20034;-87
2023/03/28 02:54:11;;;;;;;3.10;2.10;;;;;;;-3.08;100.00;102546.03;4914674;29;20085;-87
2023/03/28 02:56:42;;;;;;;8.80;2.60;;;;;;;-3.16;100.00;102543.19;4920112;29;20040;-86
2023/03/28 02:59:14;;;;;;;9.27;2.50;;;;;;;-3.21;100.00;102540.94;4922142;29;20032;-87
2023/03/28 03:01:40;;;;;;;7.47;2.22;;;;;;;-3.26;100.00;102539.66;4913778;29;20047;-87
2023/03/28 03:04:06;;;;;;;8.60;2.53;;;;;;;-3.30;100.00;102536.44;4924048;29;20024;-87
2023/03/28 03:06:33;;;;;;;7.97;2.38;;;;;;;-3.42;100.00;102526.94;4922176;29;20028;-87
2023/03/28 03:08:59;;;;;;;11.80;2.42;;;;;;;-3.48;100.00;102530.88;4914073;29;20028;-87
2023/03/28 03:11:26;;;;;;;7.53;2.30;;;;;;;-3.55;100.00;102530.53;4912502;29;20032;-87
2023/03/28 03:13:52;;;;;;;6.60;2.40;;;;;;;-3.52;100.00;102532.91;4914567;29;20051;-87
2023/03/28 03:16:17;;;;;;;7.50;2.50;;;;;;;-3.57;100.00;102535.06;4913262;29;20373;-87
2023/03/28 03:18:42;;;;;;;6.30;2.47;;;;;;;-3.62;100.00;102545.06;4911677;29;20028;-87
2023/03/28 03:21:08;;;;;;;6.23;2.13;;;;;;;-3.62;100.00;102539.00;4914330;29;20383;-87
2023/03/28 03:23:33;;;;;;;9.73;2.43;;;;;;;-3.62;100.00;102531.16;4913646;29;20421;-87
2023/03/28 03:25:58;;;;;;;7.80;2.77;;;;;;;-3.53;100.00;102538.28;4913332;29;20039;-87
2023/03/28 03:28:23;;;;;;;7.68;2.63;;;;;;;-3.56;100.00;102535.91;4914042;29;20028;-87
2023/03/28 03:30:52;;;;;;;6.73;2.70;;;;;;;-3.55;100.00;102548.03;4913946;29;20425;-87
2023/03/28 03:33:17;;;;;;;8.05;3.00;;;;;;;-3.58;100.00;102546.50;4914280;29;20032;-86
2023/03/28 03:35:44;;;;;;;10.10;3.10;;;;;;;-3.62;100.00;102546.88;4913319;29;20511;-87
2023/03/28 03:38:10;;;;;;;13.43;3.42;;;;;;;-3.59;100.00;102544.00;4895782;29;20507;-87
2023/03/28 03:40:37;;;;;;;6.17;2.50;;;;;;;-3.62;100.00;102541.63;4913930;29;20032;-87
2023/03/28 03:43:02;;;;;;;7.95;3.03;;;;;;;-3.60;100.00;102545.78;4914217;29;20036;-87
2023/03/28 03:45:27;;;;;;;10.83;3.13;;;;;;;-3.58;100.00;102553.53;4913626;29;20051;-87
2023/03/28 03:47:54;;;;;;;8.20;3.17;;;;;;;-3.55;100.00;102546.25;4916667;29;20746;-87
2023/03/28 03:50:21;;;;;;;12.20;3.70;;;;;;;-3.51;100.00;102545.06;4917364;29;20454;-88
2023/03/28 03:52:46;;;;;;;8.32;3.50;;;;;;;-3.53;100.00;102533.03;4916073;29;20174;-88
2023/03/28 03:55:11;;;;;;;11.50;3.33;;;;;;;-3.57;100.00;102534.25;4917578;29;20492;-87
2023/03/28 03:57:37;;;;;;;12.63;3.60;;;;;;;-3.59;100.00;102534.34;4917217;29;20055;-88
2023/03/28 04:00:13;;;;;;;13.60;3.67;;;;;;;-3.50;100.00;102543.28;4900157;29;20650;-87
2023/03/28 04:02:39;;;;;;;10.55;3.45;;;;;;;-3.41;100.00;102542.56;4917099;29;20039;-88
2023/03/28 04:05:07;;;;;;;11.30;3.47;;;;;;;-3.35;100.00;102538.59;4884794;29;20032;-88
2023/03/28 04:07:32;;;;;;;9.35;4.00;;;;;;;-3.36;100.00;102539.56;4916479;29;20064;-88
2023/03/28 04:09:57;;;;;;;12.73;3.90;;;;;;;-3.35;100.00;102543.84;4916216;29;20036;-88
2023/03/28 04:12:22;;;;;;;11.57;3.77;;;;;;;-3.43;100.00;102533.13;4917545;29;20076;-87
2023/03/28 04:14:48;;;;;;;11.47;4.03;;;;;;;-3.46;100.00;102525.50;4917122;29;20534;-88
2023/03/28 04:17:16;;;;;;;12.35;3.97;;;;;;;-3.41;100.00;102539.09;4916803;29;20496;-87
2023/03/28 04:19:42;;;;;;;10.07;3.27;;;;;;;-3.49;100.00;102542.31;4916568;29;20027;-87
2023/03/28 04:22:12;;;;;;;11.35;3.50;;;;;;;-3.60;100.00;102534.50;4917343;29;20034;-87
2023/03/28 04:24:43;;;;;;;11.88;5.00;;;;;;;-3.63;100.00;102532.91;4917182;29;20111;-86
2023/03/28 04:27:10;;;;;;;10.55;3.95;;;;;;;-3.68;100.00;102533.28;4898493;29;20051;-88
2023/03/28 04:29:40;;;;;;;9.93;3.85;;;;;;;-3.70;100.00;102529.97;4918690;29;20039;-87
2023/03/28 04:32:09;;;;;;;10.00;4.15;;;;;;;-3.76;100.00;102522.59;4917815;29;20036;-87
2023/03/28 04:34:36;;;;;;;10.77;3.73;;;;;;;-3.74;100.00;102530.31;4930212;29;20074;-87
2023/03/28 04:37:02;;;;;;;13.90;3.67;;;;;;;-3.84;100.00;102525.81;4917741;29;20312;-87
2023/03/28 04:39:30;;;;;;;12.73;4.63;;;;;;;-3.88;100.00;102532.25;4916556;29;20047;-87
2023/03/28 04:42:04;;;;;;;10.05;4.43;;;;;;;-3.95;100.00;102525.81;4913914;29;20028;-87
2023/03/28 04:44:30;;;;;;;8.98;4.07;;;;;;;-3.96;100.00;102529.38;4918063;29;20048;-87
2023/03/28 04:46:57;;;;;;;12.40;4.40;;;;;;;-3.97;100.00;102531.19;4918484;29;20516;-88
2023/03/28 04:49:22;;;;;;;12.60;4.27;;;;;;;-3.95;100.00;102525.81;4919225;29;20088;-88
2023/03/28 04:51:49;;;;;;;12.97;4.10;;;;;;;-3.94;100.00;102527.47;4923507;29;20304;-88
2023/03/28 04:54:15;;;;;;;16.58;5.03;;;;;;;-3.99;100.00;102519.13;4922763;29;20039;-88
2023/03/28 04:56:44;;;;;;;14.15;5.07;;;;;;;-4.05;100.00;102524.88;4921268;29;20035;-87
2023/03/28 04:59:11;;;;;;;10.38;5.30;;;;;;;-3.98;100.00;102533.91;4905807;29;20503;-87
2023/03/28 05:01:36;;;;;;;14.40;4.97;;;;;;;-4.00;100.00;102535.81;4897617;29;20029;-87
2023/03/28 05:04:01;;;;;;;19.83;5.43;;;;;;;-4.00;100.00;102539.28;4920942;29;20032;-88
2023/03/28 05:06:27;;;;;;;10.70;4.93;;;;;;;-4.04;100.00;102531.78;4926778;29;20032;-88
2023/03/28 05:08:52;;;;;;;21.27;6.00;;;;;;;-4.04;100.00;102539.63;4928524;29;20024;-88
2023/03/28 05:11:17;;;;;;;13.43;5.37;;;;;;;-4.11;100.00;102540.09;4928623;29;20087;-88
2023/03/28 05:13:46;;;;;;;12.43;5.45;;;;;;;-4.14;100.00;102545.56;4909573;29;20036;-89
2023/03/28 05:16:12;;;;;;;14.63;5.50;;;;;;;-4.13;100.00;102549.84;4925594;29;20600;-88
2023/03/28 05:18:37;;;;;;;10.47;5.87;;;;;;;-4.14;100.00;102544.75;4926922;29;20367;-87
2023/03/28 05:21:03;;;;;;;20.30;5.85;;;;;;;-4.15;100.00;102549.13;4921125;29;20048;-88
2023/03/28 05:23:28;;;;;;;12.70;6.00;;;;;;;-4.09;100.00;102554.88;4917432;29;20477;-87
2023/03/28 05:25:54;;;;;;;14.97;6.03;;;;;;;-4.07;100.00;102552.97;4916981;29;20032;-88
2023/03/28 05:28:20;;;;;;;11.87;6.23;;;;;;;-4.13;100.00;102547.25;4916120;29;20160;-88
2023/03/28 05:30:45;;;;;;;19.20;6.05;;;;;;;-4.13;100.00;102552.47;4917542;29;20385;-88
2023/03/28 05:33:11;;;;;;;18.63;6.57;;;;;;;-4.17;100.00;102556.28;4914485;29;20025;-88
2023/03/28 05:35:36;;;;;;;18.35;6.20;;;;;;;-4.15;100.00;102554.38;4915238;29;20055;-88
2023/03/28 05:38:03;;;;;;;12.57;6.47;;;;;;;-4.17;100.00;102558.88;4916120;29;20023;-88
2023/03/28 05:40:30;;;;;;;15.45;6.65;;;;;;;-4.18;100.00;102557.22;4912749;29;20044;-87
2023/03/28 05:42:55;;;;;;;19.63;6.80;;;;;;;-4.19;100.00;102557.34;4916197;29;20032;-88
2023/03/28 05:45:21;;;;;;;14.87;7.27;;;;;;;-4.26;100.00;102544.72;4915722;29;20395;-88
2023/03/28 05:47:50;;;;;;;16.25;7.13;;;;;;;-4.25;100.00;102553.41;4912692;29;20103;-89
2023/03/28 05:50:16;;;;;;;16.60;8.18;;;;;;;-4.20;100.00;102556.50;4916482;29;20028;-87
2023/03/28 05:52:41;;;;;;;25.53;8.17;;;;;;;-4.14;100.00;102563.91;4916732;29;20027;-88
2023/03/28 05:55:08;;;;;;;12.17;7.47;;;;;;;-4.08;100.00;102572.25;4920748;29;20048;-85
2023/03/28 05:57:34;;;;;;;19.30;8.55;;;;;;;-4.09;100.00;102547.00;4927411;29;20089;-90
2023/03/28 05:59:59;;;;;;;18.33;8.63;;;;;;;-3.97;100.00;102559.16;4900906;29;20040;-86
2023/03/28 06:02:28;;;;;;;24.58;8.82;;;;;;;-3.86;100.00;102559.16;4898924;29;20056;-85
2023/03/28 06:04:56;;;;;;;18.37;9.77;;;;;;;-3.79;100.00;102551.66;4907983;29;20052;-87
2023/03/28 06:07:23;;;;;;;19.73;9.43;;;;;;;-3.67;100.00;102555.94;4900153;29;20023;-90
2023/03/28 06:09:48;;;;;;;20.80;9.48;;;;;;;-3.53;100.00;102559.22;4895452;29;20491;-90
2023/03/28 06:12:14;;;;;;;23.17;10.10;;;;;;;-3.45;100.00;102542.91;4907127;29;20024;-89
2023/03/28 06:14:40;;;;;;;25.30;10.30;;;;;;;-3.37;100.00;102541.31;4915249;29;20032;-90
2023/03/28 06:17:06;;;;;;;23.50;11.25;;;;;;;-3.16;100.00;102544.97;4916204;29;20072;-89
2023/03/28 06:19:32;;;;;;;28.47;13.57;;;;;;;-2.95;100.00;102558.13;4912797;29;20028;-89
2023/03/28 06:21:57;;;;;;;27.10;13.37;;;;;;;-2.83;100.00;102557.13;4914543;29;20790;-89
2023/03/28 06:24:22;;;;;;;29.77;13.57;;;;;;;-2.73;100.00;102549.31;4915209;29;20066;-89
2023/03/28 06:26:47;;;;;;;27.20;12.37;;;;;;;-2.67;100.00;102548.00;4913001;29;20111;-89
2023/03/28 06:29:16;;;;;;;28.43;12.53;;;;;;;-2.53;100.00;102562.59;4915764;29;20539;-88
2023/03/28 06:31:41;;;;;;;26.38;12.20;;;;;;;-2.42;100.00;102561.69;4913681;29;20472;-89
2023/03/28 06:34:06;;;;;;;31.13;13.13;;;;;;;-2.28;100.00;102563.97;4914744;29;20032;-89
2023/03/28 06:36:32;;;;;;;27.53;13.03;;;;;;;-2.15;100.00;102569.03;4913516;29;20044;-89
2023/03/28 06:38:57;;;;;;;29.52;12.65;;;;;;;-2.04;100.00;102568.97;4915135;29;20035;-88
2023/03/28 06:41:23;;;;;;;30.43;14.20;;;;;;;-1.99;100.00;102552.81;4915404;29;20020;-90
2023/03/28 06:43:48;;;;;;;26.67;12.73;;;;;;;-1.84;100.00;102563.81;4918664;29;20024;-91
2023/03/28 06:46:15;;;;;;;26.13;12.80;;;;;;;-1.71;100.00;102566.19;4915728;29;20300;-91
2023/03/28 06:48:41;;;;;;;31.27;14.47;;;;;;;-1.59;100.00;102570.38;4913579;29;20103;-90
2023/03/28 06:51:06;;;;;;;29.67;12.57;;;;;;;-1.49;100.00;102567.78;4912729;29;20327;-90
2023/03/28 06:53:32;;;;;;;29.67;12.20;;;;;;;-1.52;100.00;102555.72;4914064;29;20032;-91
2023/03/28 06:55:58;;;;;;;24.02;11.13;;;;;;;-1.40;100.00;102564.34;4910225;29;20063;-91
2023/03/28 06:58:24;;;;;;;25.85;11.13;;;;;;;-1.40;100.00;102553.81;4915580;29;20031;-91
2023/03/28 07:00:53;;;;;;;29.73;11.77;;;;;;;-1.20;100.00;102582.78;4904227;29;20047;-89
2023/03/28 07:03:19;;;;;;;27.73;11.77;;;;;;;-1.26;100.00;102551.75;4934026;29;20028;-92
2023/03/28 07:05:47;;;;;;;19.45;11.00;;;;;;;-1.11;100.00;102574.09;4933605;29;20095;-91
2023/03/28 07:08:14;;;;;;;24.90;10.43;;;;;;;-1.02;100.00;102574.22;4933877;29;20111;-91
2023/03/28 07:10:40;;;;;;;23.90;10.13;;;;;;;-0.90;100.00;102583.63;4925623;29;20109;-91
2023/03/28 07:13:07;;;;;;;25.17;10.83;;;;;;;-0.86;100.00;102586.84;4917370;29;20028;-91
2023/03/28 07:15:32;;;;;;;25.38;9.98;;;;;;;-0.80;100.00;102587.13;4906034;29;20028;-91
2023/03/28 07:17:58;;;;;;;22.42;9.88;;;;;;;-0.74;100.00;102584.91;4915090;29;20024;-92
2023/03/28 07:20:26;;;;;;;23.30;9.77;;;;;;;-0.64;100.00;102586.53;4914070;29;20033;-90
2023/03/28 07:22:51;;;;;;;37.35;11.30;;;;;;;-0.60;100.00;102576.56;4919052;29;20087;-91
2023/03/28 07:25:17;;;;;;;33.43;10.83;;;;;;;-0.39;100.00;102583.47;4924415;29;20044;-91
2023/03/28 07:27:45;;;;;;;30.17;9.10;;;;;;;-0.28;100.00;102585.94;4939270;29;20028;-92
2023/03/28 07:30:13;;;;;;;21.08;8.82;;;;;;;-0.24;100.00;102582.06;4937710;29;20032;-90
2023/03/28 07:32:38;;;;;;;19.80;8.25;;;;;;;-0.20;100.00;102575.53;4925549;29;20096;-91
2023/03/28 07:35:06;;;;;;;19.67;8.80;;;;;;;0.02;100.00;102591.13;4939708;28;20052;-91
2023/03/28 07:37:34;;;;;;;25.23;10.77;;;;;;;0.15;100.00;102578.44;4936784;28;20036;-92
2023/03/28 07:39:59;;;;;;;19.38;8.43;;;;;;;0.42;100.00;102596.09;4921042;29;20032;-90
2023/03/28 07:42:26;;;;;;;21.97;8.43;;;;;;;0.63;100.00;102602.13;4920322;29;20092;-92
2023/03/28 07:44:52;;;;;;;24.83;7.30;;;;;;;0.85;100.00;102598.22;4919706;29;20327;-91
2023/03/28 07:47:18;;;;;;;21.33;8.07;;;;;;;1.19;100.00;102602.84;4920024;29;20040;-91
2023/03/28 07:49:44;;;;;;;17.50;6.63;;;;;;;1.41;100.00;102596.25;4921300;29;20024;-91
2023/03/28 07:52:10;;;;;;;19.70;6.53;;;;;;;1.70;100.00;102605.72;4903753;29;20047;-90
2023/03/28 07:54:36;;;;;;;17.02;6.25;;;;;;;1.90;100.00;102602.88;4919898;29;20032;-90
2023/03/28 07:57:02;;;;;;;16.27;5.90;;;;;;;2.14;100.00;102607.47;4920108;29;20046;-91
2023/03/28 07:59:27;;;;;;;22.90;5.93;;;;;;;2.25;100.00;102587.84;4918367;29;20028;-87
2023/03/28 08:01:53;;;;;;;14.60;5.53;;;;;;;2.40;100.00;102598.66;4918864;29;20095;-87
2023/03/28 08:04:20;;;;;;;14.02;5.90;;;;;;;2.50;100.00;102604.66;4920822;29;20226;-89
2023/03/28 08:06:46;;;;;;;10.07;4.63;;;;;;;2.65;100.00;102598.75;4918584;29;20032;-88
2023/03/28 08:09:14;;;;;;;17.75;4.57;;;;;;;2.83;100.00;102612.69;4918586;29;20032;-90
2023/03/28 08:11:41;;;;;;;20.17;5.28;;;;;;;3.02;100.00;102618.69;4918583;29;20492;-90
2023/03/28 08:14:10;;;;;;;15.07;4.93;;;;;;;3.24;100.00;102621.69;4918813;29;20028;-89
2023/03/28 08:16:36;;;;;;;16.77;4.47;;;;;;;3.43;100.00;102618.72;4918982;29;20036;-89
2023/03/28 08:19:02;;;;;;;9.10;3.85;;;;;;;3.61;100.00;102615.06;4926441;29;20046;-89
2023/03/28 08:21:31;;;;;;;8.50;3.83;;;;;;;3.78;100.00;102603.44;4938142;29;20028;-89
2023/03/28 08:23:57;;;;;;;10.40;3.13;;;;;;;3.94;100.00;102615.03;4938641;29;20042;-90
2023/03/28 08:26:24;;;;;;;11.23;3.85;;;;;;;4.11;100.00;102602.53;4937276;29;20019;-89
2023/03/28 08:28:53;;;;;;;14.55;3.88;;;;;;;4.31;100.00;102615.41;4937145;29;20043;-91
2023/03/28 08:31:22;;;;;;;13.98;3.22;;;;;;;4.40;100.00;102617.03;4937256;29;20618;-90
2023/03/28 08:33:50;;;;;;;15.30;3.25;;;;;;;4.43;99.20;102608.72;4936179;29;20039;-90
2023/03/28 08:39:08;;;;;;;17.08;3.45;;;;;;;4.54;98.93;102587.09;4896998;29;20037;-91
2023/03/28 08:45:31;;;;;;;10.45;2.15;;;;;;;4.81;97.50;102603.56;4863610;29;20042;-91
2023/03/28 08:48:11;;;;;;;7.93;2.20;;;;;;;4.95;99.47;102599.28;4881186;29;20077;-90
2023/03/28 08:50:43;;;;;;;7.75;2.28;;;;;;;5.02;95.16;102585.31;4909244;29;20063;-91
2023/03/28 08:53:20;;;;;;;10.38;2.67;;;;;;;5.24;90.82;102597.78;4918019;29;20032;-91
2023/03/28 08:55:47;;;;;;;13.73;2.73;;;;;;;5.37;95.07;102589.19;4922221;29;20035;-90
2023/03/28 08:58:22;;;;;;;10.52;2.40;;;;;;;5.57;89.58;102601.97;4925686;29;20039;-91
2023/03/28 09:00:50;;;;;;;11.70;1.98;;;;;;;5.46;85.86;102584.63;4909842;29;20353;-91
2023/03/28 09:03:21;;;;;;;8.15;2.05;;;;;;;5.36;83.03;102600.00;4919187;29;20103;-91
2023/03/28 09:06:07;;;;;;;10.13;2.33;;;;;;;5.48;86.69;102597.75;4941832;23;20058;-91
2023/03/28 09:08:42;;;;;;;10.57;2.20;;;;;;;5.57;82.80;102597.47;4943809;29;20032;-90
2023/03/28 09:11:45;;;;;;;8.63;1.92;;;;;;;5.68;86.30;102571.44;4939045;29;20036;-90
2023/03/28 09:14:40;;;;;;;9.38;2.05;;;;;;;6.04;86.54;102584.06;4902910;29;20035;-90
2023/03/28 09:17:52;;;;;;;5.13;1.40;;;;;;;6.25;81.32;102588.66;4921723;29;20024;-89
2023/03/28 09:20:29;;;;;;;4.70;1.13;;;;;;;6.05;76.14;102583.06;4894787;29;20312;-89
2023/03/28 09:23:03;;;;;;;9.82;1.63;;;;;;;5.89;77.32;102568.09;4917548;29;20086;-91
2023/03/28 09:25:54;;;;;;;7.43;1.65;;;;;;;5.93;76.39;102572.03;4913751;29;20063;-91
2023/03/28 09:28:35;;;;;;;9.32;1.80;;;;;;;5.97;77.97;102585.78;4903014;29;20493;-90
2023/03/28 09:31:04;;;;;;;6.93;1.60;;;;;;;5.91;77.42;102571.38;4899046;29;20047;-91
2023/03/28 09:33:33;;;;;;;11.18;1.75;;;;;;;6.19;77.11;102578.72;4881106;29;20021;-89
2023/03/28 09:36:00;;;;;;;4.75;1.58;;;;;;;6.19;74.88;102566.25;4881960;29;20067;-89
2023/03/28 09:38:40;;;;;;;7.18;1.33;;;;;;;6.31;76.82;102566.59;4897536;29;20032;-89
2023/03/28 09:41:15;;;;;;;4.88;1.45;;;;;;;6.42;74.99;102575.94;4898002;29;20517;-89
2023/03/28 09:43:47;;;;;;;6.00;1.77;;;;;;;6.48;74.39;102577.88;4913096;29;20031;-89
2023/03/28 09:46:24;;;;;;;4.20;1.37;;;;;;;6.45;73.60;102567.59;4916547;29;20303;-88
2023/03/28 09:48:49;;;;;;;6.95;1.90;;;;;;;6.54;73.04;102568.28;4917063;29;20061;-91
2023/03/28 09:51:16;;;;;;;4.88;1.70;;;;;;;6.68;73.85;102563.94;4917126;29;20024;-89
2023/03/28 09:53:42;;;;;;;6.78;1.60;;;;;;;6.82;73.84;102547.06;4916902;29;20066;-89
2023/03/28 09:56:24;;;;;;;7.90;1.70;;;;;;;6.94;72.22;102544.72;4942644;23;20063;-89
2023/03/28 09:58:58;;;;;;;6.57;1.90;;;;;;;6.93;69.80;102531.59;4928025;29;20036;-89
2023/03/28 10:01:30;;;;;;;4.95;1.77;;;;;;;6.73;69.74;102516.25;4917149;29;20523;-89
2023/03/28 10:03:56;;;;;;;9.20;1.90;;;;;;;6.94;70.33;102554.53;4917114;29;20066;-89
2023/03/28 10:06:30;;;;;;;6.68;1.55;;;;;;;7.01;71.21;102547.44;4916943;29;20052;-89
2023/03/28 10:09:09;;;;;;;9.57;1.75;;;;;;;7.06;69.31;102530.88;4917829;29;20040;-89
2023/03/28 10:11:53;;;;;;;4.27;1.77;;;;;;;7.15;69.27;102529.72;4919965;29;20036;-89
2023/03/28 10:14:31;;;;;;;8.17;1.97;;;;;;;6.92;68.82;102525.44;4927181;29;20288;-90
2023/03/28 10:17:00;;;;;;;9.27;2.40;;;;;;;7.08;68.96;102521.69;4935484;29;20083;-89
2023/03/28 10:19:32;;;;;;;3.28;1.33;;;;;;;7.15;66.01;102520.91;4951720;29;20037;-92
2023/03/28 10:22:01;;;;;;;4.97;1.20;;;;;;;7.24;65.94;102501.09;4958039;28;20715;-91
2023/03/28 10:24:27;;;;;;;4.32;0.90;;;;;;;7.38;61.80;102502.00;4940325;29;20048;-92
2023/03/28 10:26:57;;;;;;;8.77;1.30;;;;;;;7.67;64.45;102514.28;4940642;29;20032;-92
2023/03/28 10:29:22;;;;;;;6.33;1.27;;;;;;;7.87;63.65;102506.38;4952972;29;20032;-91
2023/03/28 10:31:54;;;;;;;6.53;1.30;;;;;;;7.90;63.46;102515.81;4947263;29;20355;-89
2023/03/28 10:34:26;;;;;;;5.60;1.40;;;;;;;7.78;62.26;102506.75;4956628;29;20016;-91
2023/03/28 11:13:55;;;;;;;6.13;1.35;;;;;;;7.91;56.52;102405.38;4919525;29;20032;-90
2023/03/28 11:16:50;;;;;;;4.05;1.50;;;;;;;8.13;56.49;102434.59;4916913;23;20045;-92
2023/03/28 11:19:41;;;;;;;5.43;1.50;;;;;;;7.55;57.21;102390.47;4880546;29;20040;-90
2023/03/28 11:22:29;;;;;;;4.65;1.50;;;;;;;7.78;57.64;102421.34;4897557;29;20048;-90
2023/03/28 11:25:22;;;;;;;6.43;1.63;;;;;;;8.01;58.42;102426.34;4897752;29;20024;-90
2023/03/28 11:28:05;;;;;;;4.57;1.60;;;;;;;7.99;55.88;102389.19;4897710;29;20123;-90
2023/03/28 11:30:32;;;;;;;5.47;2.00;;;;;;;8.22;55.15;102411.19;4897506;29;21032;-90
2023/03/28 11:33:20;;;;;;;6.28;1.70;;;;;;;8.30;55.82;102411.81;4897983;29;20035;-90
2023/03/28 11:35:50;;;;;;;7.35;1.60;;;;;;;8.56;57.34;102404.06;4898063;29;20389;-91
2023/03/28 11:38:28;;;;;;;8.88;1.85;;;;;;;8.78;56.74;102396.66;4897889;29;20113;-90
2023/03/28 11:41:11;;;;;;;6.03;2.00;;;;;;;8.58;55.43;102391.31;4898144;29;20122;-90
2023/03/28 11:43:45;;;;;;;4.18;1.40;;;;;;;8.62;55.66;102401.38;4897293;29;20029;-90
2023/03/28 11:46:24;;;;;;;7.47;1.70;;;;;;;8.37;55.61;102398.47;4879143;29;20024;-90
2023/03/28 11:49:13;;;;;;;6.43;2.03;;;;;;;8.18;56.60;102384.09;4897825;29;20277;-90
2023/03/28 11:52:07;;;;;;;7.75;2.00;;;;;;;8.27;59.66;102369.50;4876408;29;20108;-90
2023/03/28 11:54:43;;;;;;;6.95;1.63;;;;;;;8.55;57.11;102363.19;4895645;29;20033;-90
2023/03/28 11:57:29;;;;;;;4.38;1.85;;;;;;;8.74;54.52;102360.69;4917478;29;20035;-91
2023/03/28 12:00:10;;;;;;;6.07;1.80;;;;;;;8.62;54.81;102347.94;4896929;29;20029;-91
2023/03/28 12:02:41;;;;;;;6.65;1.73;;;;;;;8.62;54.84;102326.56;4906697;29;20016;-90
2023/03/28 12:05:25;;;;;;;8.50;1.80;;;;;;;8.71;55.35;102345.06;4910256;29;20036;-90
2023/03/28 12:08:04;;;;;;;6.40;1.50;;;;;;;8.79;54.65;102340.31;4897145;29;20068;-91
2023/03/28 12:10:38;;;;;;;4.55;1.48;;;;;;;9.01;53.90;102334.72;4899556;29;20028;-91
2023/03/28 12:13:38;;;;;;;7.03;1.58;;;;;;;9.26;52.09;102325.19;4883914;29;20052;-91
2023/03/28 12:16:16;;;;;;;4.78;1.38;;;;;;;9.49;52.60;102322.81;4887164;29;20056;-91
2023/03/28 12:19:11;;;;;;;5.20;1.40;;;;;;;9.79;51.84;102322.22;4897873;29;20035;-91